Time;durP1;ratioP1;P1;durP2;ratioP2;P2;SDS_P1;SDS_P2;PMS_P1;PMS_P2;Temp;Humidity;BMP_temperature;BMP_pressure;BME280_temperature;BME280_humidity;BME280_pressure;Samples;Min_cycle;Max_cycle;Signal;HPM_P1;HPM_P2
2022/10/19 00:04:21;;;;;;;16.67;6.80;;;;;;;11.46;100.00;101403.17;5317932;55;1143172;-68
2022/10/19 00:09:28;;;;;;;13.80;6.00;;;;;;;11.46;100.00;101400.52;5265024;55;1143721;-65
2022/10/19 00:14:34;;;;;;;11.47;5.90;;;;;;;11.47;100.00;101404.02;5229173;56;1143147;-67
2022/10/19 00:19:40;;;;;;;18.53;7.53;;;;;;;11.43;100.00;101404.73;5229079;56;1143239;-66
2022/10/19 00:24:46;;;;;;;11.48;6.30;;;;;;;11.41;100.00;101403.13;5207694;56;1143014;-67
2022/10/19 00:29:53;;;;;;;13.00;7.20;;;;;;;11.40;100.00;101402.28;5129370;57;1141104;-67
2022/10/19 00:35:02;;;;;;;8.73;6.30;;;;;;;11.40;100.00;101401.43;5139834;57;1141048;-64
2022/10/19 00:40:09;;;;;;;10.43;6.20;;;;;;;11.39;100.00;101409.00;5141598;56;1139052;-66
2022/10/19 00:45:17;;;;;;;13.57;5.70;;;;;;;11.39;100.00;101403.23;5129925;56;1141134;-65
2022/10/19 00:50:23;;;;;;;17.30;6.43;;;;;;;11.39;100.00;101396.61;5140647;56;1141395;-68
2022/10/19 00:55:29;;;;;;;18.80;6.77;;;;;;;11.41;100.00;101385.91;5133838;57;1141514;-63
2022/10/19 01:00:35;;;;;;;8.70;4.20;;;;;;;11.39;100.00;101379.87;5190047;56;1141047;-67
2022/10/19 01:05:43;;;;;;;15.50;5.27;;;;;;;11.37;100.00;101374.67;5147026;56;1139232;-66
2022/10/19 01:11:10;;;;;;;11.60;4.53;;;;;;;11.35;100.00;101376.56;5130355;56;1141263;-67
2022/10/19 01:16:54;;;;;;;9.50;4.47;;;;;;;11.36;100.00;101369.00;5129966;56;1141017;-68
2022/10/19 01:22:26;;;;;;;10.63;5.33;;;;;;;11.36;100.00;101386.69;5026355;58;1141385;-69
2022/10/19 01:27:57;;;;;;;7.70;5.20;;;;;;;11.34;100.00;101382.81;4890238;59;1143150;-62
2022/10/19 01:33:14;;;;;;;9.37;5.80;;;;;;;11.33;100.00;101388.20;4911709;59;1141048;-65
2022/10/19 01:38:44;;;;;;;18.53;5.27;;;;;;;11.29;100.00;101383.62;4884353;59;1141066;-65
2022/10/19 01:44:07;;;;;;;6.27;3.70;;;;;;;11.27;100.00;101385.04;4826873;59;1143264;-68
2022/10/19 01:49:17;;;;;;;12.53;3.90;;;;;;;11.27;100.00;101385.04;4858673;59;1141046;-64
2022/10/19 01:54:25;;;;;;;7.43;3.70;;;;;;;11.24;100.00;101382.59;4954737;56;1143290;-66
2022/10/19 01:59:34;;;;;;;8.23;3.63;;;;;;;11.19;100.00;101371.45;5184671;56;1141080;-65
2022/10/19 02:04:45;;;;;;;5.73;3.10;;;;;;;11.19;100.00;101363.98;5147769;57;1141087;-68
2022/10/19 02:09:51;;;;;;;5.60;3.20;;;;;;;11.15;100.00;101350.09;5149279;56;1141036;-67
2022/10/19 02:15:01;;;;;;;10.47;3.20;;;;;;;11.20;100.00;101353.77;5096644;57;1141276;-64
2022/10/19 02:20:08;;;;;;;12.07;2.83;;;;;;;11.19;100.00;101360.00;5127268;56;1143207;-68
2022/10/19 02:25:15;;;;;;;15.00;3.57;;;;;;;11.18;100.00;101353.86;5150525;56;1143528;-66
2022/10/19 02:30:21;;;;;;;8.57;3.33;;;;;;;11.16;100.00;101358.87;5216970;56;1140998;-63
2022/10/19 02:35:28;;;;;;;9.80;3.17;;;;;;;11.14;100.00;101359.02;5216911;56;1138991;-63
2022/10/19 02:40:39;;;;;;;12.13;3.27;;;;;;;11.12;100.00;101362.23;5213691;56;1138958;-67
2022/10/19 02:45:49;;;;;;;9.90;2.80;;;;;;;11.12;100.00;101365.36;5282230;55;1141082;-66
2022/10/19 02:50:55;;;;;;;9.50;2.60;;;;;;;11.11;100.00;101365.83;5288916;55;1138911;-66
2022/10/19 02:56:01;;;;;;;7.43;3.00;;;;;;;11.11;100.00;101361.01;5243273;56;1139004;-65
2022/10/19 03:01:07;;;;;;;9.13;3.17;;;;;;;11.08;100.00;101355.91;5312651;55;1139392;-67
2022/10/19 03:06:13;;;;;;;7.93;3.17;;;;;;;11.08;100.00;101351.94;5331476;55;1139308;-66
2022/10/19 03:11:18;;;;;;;9.80;2.43;;;;;;;11.04;100.00;101354.41;5330913;55;1139205;-66
2022/10/19 03:16:25;;;;;;;11.70;3.33;;;;;;;11.07;100.00;101363.00;5298913;55;1139399;-65
2022/10/19 03:21:31;;;;;;;8.48;3.55;;;;;;;11.07;100.00;101356.86;5332198;55;1141062;-65
2022/10/19 03:26:36;;;;;;;12.77;3.80;;;;;;;11.04;100.00;101351.28;5168782;55;1139482;-67
2022/10/19 03:31:42;;;;;;;9.70;3.27;;;;;;;11.03;100.00;101352.70;5174615;56;1141044;-66
2022/10/19 03:36:48;;;;;;;8.65;2.45;;;;;;;10.97;100.00;101347.84;5242973;56;1139018;-67
2022/10/19 03:41:53;;;;;;;10.30;2.40;;;;;;;10.96;100.00;101355.40;5236886;56;1138934;-65
2022/10/19 03:46:59;;;;;;;10.73;2.47;;;;;;;10.90;100.00;101352.67;5243164;56;1141045;-66
2022/10/19 03:52:05;;;;;;;7.47;2.70;;;;;;;10.89;100.00;101357.11;5256406;55;1139378;-63
2022/10/19 03:57:11;;;;;;;9.30;1.90;;;;;;;10.88;100.00;101347.95;5144235;56;1136933;-68
2022/10/19 04:02:17;;;;;;;12.63;2.30;;;;;;;10.88;100.00;101334.72;5184830;56;1141012;-65
2022/10/19 04:07:24;;;;;;;6.97;2.63;;;;;;;10.85;100.00;101341.53;5122164;56;1143114;-66
2022/10/19 04:12:29;;;;;;;7.67;2.00;;;;;;;10.85;100.00;101341.53;5164074;56;1141019;-62
2022/10/19 04:17:36;;;;;;;5.27;1.93;;;;;;;10.84;100.00;101349.97;5238216;55;1140974;-65
2022/10/19 04:22:42;;;;;;;15.20;3.40;;;;;;;10.84;100.00;101355.73;5187932;56;1141025;-64
2022/10/19 04:27:47;;;;;;;5.83;1.87;;;;;;;10.82;100.00;101353.66;5141897;57;1143133;-64
2022/10/19 04:32:53;;;;;;;9.20;2.33;;;;;;;10.82;100.00;101364.25;5161979;56;1141083;-65
2022/10/19 04:38:00;;;;;;;8.47;2.03;;;;;;;10.82;100.00;101368.22;5201778;56;1141059;-65
2022/10/19 04:43:06;;;;;;;7.93;1.87;;;;;;;10.77;100.00;101361.89;5193767;56;1141178;-64
2022/10/19 04:48:12;;;;;;;8.73;2.17;;;;;;;10.73;100.00;101354.24;5196866;56;1141089;-68
2022/10/19 04:53:19;;;;;;;12.58;2.08;;;;;;;10.69;100.00;101354.94;5214067;56;1141061;-68
2022/10/19 04:58:24;;;;;;;6.50;2.33;;;;;;;10.66;100.00;101356.93;5177345;56;1143176;-66
2022/10/19 05:03:31;;;;;;;8.93;2.93;;;;;;;10.68;100.00;101362.97;5172596;56;1141311;-63
2022/10/19 05:08:38;;;;;;;9.10;2.00;;;;;;;10.66;100.00;101359.10;5175627;56;1141009;-66
2022/10/19 05:13:44;;;;;;;12.50;2.20;;;;;;;10.64;100.00;101342.95;5193431;56;1141188;-68
2022/10/19 05:19:00;;;;;;;7.17;1.53;;;;;;;10.62;100.00;101342.19;5176445;56;1143350;-65
2022/10/19 05:24:01;;;;;;;11.23;1.60;;;;;;;10.58;100.00;101350.80;5137070;56;1141017;-65
2022/10/19 05:29:06;;;;;;;6.13;2.10;;;;;;;10.57;100.00;101355.70;5114316;56;1143141;-68
2022/10/19 05:34:12;;;;;;;4.43;1.37;;;;;;;10.55;100.00;101362.88;5156860;56;1141235;-64
2022/10/19 05:39:19;;;;;;;7.23;1.63;;;;;;;10.53;100.00;101366.13;5174943;56;1141038;-64
2022/10/19 05:44:25;;;;;;;5.00;1.65;;;;;;;10.53;100.00;101366.13;5153537;55;1141198;-67
2022/10/19 05:49:30;;;;;;;5.23;2.00;;;;;;;10.55;100.00;101376.11;5215949;56;1140964;-66
2022/10/19 05:54:37;;;;;;;8.03;1.87;;;;;;;10.57;100.00;101376.39;5190167;56;1141050;-68
2022/10/19 05:59:44;;;;;;;6.87;1.87;;;;;;;10.57;100.00;101378.19;5197223;55;1141037;-69
2022/10/19 06:04:50;;;;;;;5.17;1.20;;;;;;;10.54;100.00;101395.09;5208503;55;1141263;-66
2022/10/19 06:09:55;;;;;;;7.27;1.60;;;;;;;10.53;100.00;101400.52;5228548;56;1140985;-68
2022/10/19 06:15:01;;;;;;;11.43;2.10;;;;;;;10.47;100.00;101385.87;5228842;56;1140829;-67
2022/10/19 06:20:08;;;;;;;10.97;2.43;;;;;;;10.54;100.00;101395.60;5232428;56;1143007;-69
2022/10/19 06:25:14;;;;;;;7.47;1.20;;;;;;;10.50;100.00;101397.59;5216863;56;1143143;-68
2022/10/19 06:30:22;;;;;;;7.57;1.20;;;;;;;10.52;100.00;101404.95;5184300;56;1140995;-67
2022/10/19 06:35:28;;;;;;;3.70;1.30;;;;;;;10.52;100.00;101404.95;5184777;56;1141084;-69
2022/10/19 06:40:36;;;;;;;6.93;1.97;;;;;;;10.56;100.00;101400.30;5039870;57;1141080;-66
2022/10/19 06:45:42;;;;;;;11.07;1.77;;;;;;;10.57;100.00;101408.14;5135259;56;1141150;-66
2022/10/19 06:50:57;;;;;;;7.87;1.67;;;;;;;10.56;100.00;101405.11;5190293;56;1143416;-67
2022/10/19 06:56:05;;;;;;;8.27;2.93;;;;;;;10.63;100.00;101416.64;5182815;56;1141031;-66
2022/10/19 07:01:12;;;;;;;3.33;1.77;;;;;;;10.68;100.00;101422.50;5157563;56;1141079;-69
2022/10/19 07:06:19;;;;;;;4.93;1.80;;;;;;;10.72;100.00;101423.98;5165459;56;1139091;-68
2022/10/19 07:11:25;;;;;;;9.68;1.60;;;;;;;10.73;100.00;101428.33;5248954;55;1138993;-67
2022/10/19 07:16:31;;;;;;;8.63;1.77;;;;;;;10.71;100.00;101432.86;5260936;55;1139229;-70
2022/10/19 07:21:40;;;;;;;5.53;1.53;;;;;;;10.68;100.00;101433.94;5267738;55;1139001;-65
2022/10/19 07:26:45;;;;;;;2.80;1.60;;;;;;;10.66;100.00;101442.44;5255901;55;1138955;-65
2022/10/19 07:31:51;;;;;;;7.67;1.30;;;;;;;10.60;100.00;101441.95;5246651;55;1138865;-65
2022/10/19 07:36:56;;;;;;;3.23;1.27;;;;;;;10.55;100.00;101443.09;5236668;55;1139026;-68
2022/10/19 07:42:03;;;;;;;6.03;1.60;;;;;;;10.54;100.00;101456.44;5219090;56;1138941;-69
2022/10/19 07:47:09;;;;;;;4.33;1.40;;;;;;;10.54;100.00;101454.61;5219182;56;1138943;-71
2022/10/19 07:52:16;;;;;;;6.27;1.60;;;;;;;10.55;100.00;101465.58;5207353;56;1139276;-65
2022/10/19 07:57:22;;;;;;;8.67;1.57;;;;;;;10.57;100.00;101466.33;5169856;55;1139005;-68
2022/10/19 08:02:28;;;;;;;12.13;2.33;;;;;;;10.61;100.00;101460.37;5237416;56;1139224;-65
2022/10/19 08:07:35;;;;;;;6.73;2.20;;;;;;;10.73;100.00;101468.86;5079801;56;1141149;-68
2022/10/19 08:12:41;;;;;;;10.17;2.47;;;;;;;10.82;100.00;101462.16;5035896;58;1139121;-64
2022/10/19 08:17:48;;;;;;;4.10;1.07;;;;;;;10.88;100.00;101467.04;4961095;58;1141163;-67
2022/10/19 08:22:54;;;;;;;5.13;1.30;;;;;;;11.06;100.00;101468.98;5036619;58;1139187;-68
2022/10/19 08:28:00;;;;;;;6.30;1.67;;;;;;;11.19;100.00;101476.52;5167505;57;1136989;-73
2022/10/19 08:33:07;;;;;;;4.17;1.37;;;;;;;11.28;100.00;101468.84;5247078;56;1136933;-73
2022/10/19 08:38:13;;;;;;;2.40;0.90;;;;;;;11.35;100.00;101475.03;5269867;56;1141031;-75
2022/10/19 08:43:32;;;;;;;5.42;1.72;;;;;;;11.52;100.00;101471.66;5098374;56;1141289;-73
2022/10/19 08:48:41;;;;;;;7.72;3.30;;;;;;;11.58;100.00;101473.06;5224403;56;1141057;-72
2022/10/19 08:53:59;;;;;;;2.67;1.73;;;;;;;11.58;100.00;101478.36;5181815;56;1141201;-73
2022/10/19 08:59:45;;;;;;;3.93;2.20;;;;;;;11.62;100.00;101486.45;5179024;56;1141079;-74
2022/10/19 09:05:04;;;;;;;3.40;1.50;;;;;;;11.65;100.00;101484.93;5126216;57;1141170;-74
2022/10/19 09:10:20;;;;;;;5.63;2.47;;;;;;;11.64;100.00;101489.86;5217881;56;1140502;-74
2022/10/19 09:15:41;;;;;;;6.43;3.67;;;;;;;11.64;100.00;101489.38;5218161;56;1141009;-73
2022/10/19 09:20:51;;;;;;;3.40;2.10;;;;;;;11.62;100.00;101493.08;5216223;56;1141079;-74
2022/10/19 09:25:57;;;;;;;5.80;2.95;;;;;;;11.53;100.00;101497.20;5216008;56;1141036;-74
2022/10/19 09:31:04;;;;;;;6.80;2.93;;;;;;;11.42;100.00;101509.45;5168480;56;1141167;-74
2022/10/19 09:36:10;;;;;;;4.00;2.13;;;;;;;11.32;100.00;101512.30;5179032;56;1141062;-74
2022/10/19 09:41:22;;;;;;;10.83;3.93;;;;;;;11.25;100.00;101524.64;5216440;56;1141109;-73
2022/10/19 09:46:53;;;;;;;8.23;2.97;;;;;;;11.20;100.00;101533.81;5085288;57;1143268;-74
2022/10/19 09:52:01;;;;;;;7.50;2.73;;;;;;;11.15;100.00;101527.98;5193926;56;1139265;-73
2022/10/19 09:57:07;;;;;;;2.85;1.95;;;;;;;11.19;100.00;101532.97;5245340;55;1139088;-74
2022/10/19 10:02:20;;;;;;;3.43;1.27;;;;;;;11.25;100.00;101538.36;5251734;56;1138910;-74
2022/10/19 10:07:30;;;;;;;1.83;1.20;;;;;;;11.39;100.00;101554.67;5198269;56;1139018;-74
2022/10/19 10:12:40;;;;;;;6.60;1.50;;;;;;;11.56;100.00;101559.27;5131903;57;1139148;-73
2022/10/19 10:17:48;;;;;;;1.70;1.30;;;;;;;11.73;100.00;101562.14;5117837;57;1138996;-73
2022/10/19 10:23:01;;;;;;;3.60;1.50;;;;;;;11.80;100.00;101571.88;5123412;56;1138925;-75
2022/10/19 10:28:26;;;;;;;2.33;1.40;;;;;;;11.90;100.00;101576.97;5155803;56;1139030;-73
2022/10/19 10:33:37;;;;;;;2.00;1.37;;;;;;;12.05;100.00;101571.97;5143016;56;1136997;-73
2022/10/19 10:38:52;;;;;;;3.47;1.30;;;;;;;12.14;100.00;101571.34;5185203;56;1141337;-74
2022/10/19 10:44:05;;;;;;;3.30;2.20;;;;;;;12.21;100.00;101567.33;5194091;56;1141421;-66
2022/10/19 10:49:19;;;;;;;2.03;1.67;;;;;;;12.21;100.00;101579.27;5176808;57;1141341;-70
2022/10/19 10:54:30;;;;;;;4.23;1.37;;;;;;;12.21;100.00;101583.72;5181302;56;1141070;-72
2022/10/19 10:59:43;;;;;;;4.63;1.73;;;;;;;12.10;100.00;101587.55;5135766;56;1141186;-72
2022/10/19 11:05:00;;;;;;;9.53;1.67;;;;;;;12.03;100.00;101590.25;5066706;57;1141065;-70
2022/10/19 11:10:25;;;;;;;6.80;2.27;;;;;;;12.09;100.00;101588.02;5065380;58;1140956;-70
2022/10/19 11:16:00;;;;;;;3.53;1.70;;;;;;;12.35;100.00;101586.29;5040106;57;1141285;-71
2022/10/19 11:21:15;;;;;;;1.47;0.73;;;;;;;12.63;100.00;101574.62;4985780;58;1141091;-70
2022/10/19 11:26:37;;;;;;;2.10;1.17;;;;;;;12.98;100.00;101578.32;5020267;58;1141031;-71
2022/10/19 11:31:49;;;;;;;2.07;1.50;;;;;;;13.25;100.00;101579.99;4974699;58;1141009;-69
2022/10/19 11:37:01;;;;;;;;;;;;;;;13.25;100.00;101585.30;5059394;58;1141100;-71
2022/10/19 11:42:19;;;;;;;5.80;1.00;;;;;;;13.28;100.00;101585.94;5069117;58;978414;-70
2022/10/19 11:47:42;;;;;;;1.30;0.87;;;;;;;13.13;100.00;101592.31;5047301;57;1137160;-71
2022/10/19 11:52:59;;;;;;;1.00;0.50;;;;;;;13.09;100.00;101596.62;5032336;57;1138840;-70
2022/10/19 11:58:34;;;;;;;6.07;1.77;;;;;;;13.03;100.00;101595.23;5052838;58;1139019;-72
2022/10/19 12:04:09;;;;;;;2.27;0.97;;;;;;;13.28;100.00;101587.27;5079928;57;1138916;-70
2022/10/19 12:09:45;;;;;;;3.37;0.90;;;;;;;13.65;100.00;101585.42;5121493;57;1141078;-72
2022/10/19 12:14:56;;;;;;;2.30;0.80;;;;;;;13.69;100.00;101593.55;4998560;58;1141401;-69
2022/10/19 12:20:15;;;;;;;2.70;1.13;;;;;;;13.56;98.50;101591.91;5104774;57;1141459;-72
2022/10/19 12:25:21;;;;;;;3.90;1.13;;;;;;;13.30;95.54;101595.95;5068722;57;1139205;-72
2022/10/19 12:30:27;;;;;;;2.97;1.40;;;;;;;13.12;96.75;101578.66;5101480;57;1139264;-70
2022/10/19 12:35:52;;;;;;;4.20;0.90;;;;;;;13.21;97.43;101593.97;5141978;57;1139340;-73
2022/10/19 12:41:18;;;;;;;2.20;0.97;;;;;;;13.11;96.18;101596.03;5128420;57;1138861;-70
2022/10/19 12:46:44;;;;;;;1.67;1.13;;;;;;;13.12;98.30;101596.41;5128064;57;1139082;-69
2022/10/19 12:51:50;;;;;;;3.03;1.50;;;;;;;13.43;97.06;101587.97;5121965;57;1139129;-72
2022/10/19 12:57:00;;;;;;;3.97;2.07;;;;;;;13.51;96.02;101595.37;5111878;57;1138966;-72
2022/10/19 13:02:13;;;;;;;5.07;2.00;;;;;;;13.48;96.26;101583.14;5148799;57;1138934;-73
2022/10/19 13:07:19;;;;;;;4.63;1.73;;;;;;;13.42;93.71;101590.73;5176566;56;1138895;-73
2022/10/19 13:12:28;;;;;;;3.67;1.77;;;;;;;13.28;93.61;101597.89;5122920;57;1139223;-72
2022/10/19 13:17:47;;;;;;;2.93;0.80;;;;;;;13.41;95.95;101599.19;5141094;57;1136940;-70
2022/10/19 13:22:51;;;;;;;0.57;0.57;;;;;;;13.64;87.74;101595.69;5063635;57;1137280;-72
2022/10/19 13:28:16;;;;;;;7.40;0.50;;;;;;;13.82;88.90;101598.80;5116011;57;1137111;-71
2022/10/19 13:33:31;;;;;;;2.50;0.80;;;;;;;14.12;87.22;101600.14;5042480;57;1136945;-71
2022/10/19 13:39:04;;;;;;;1.23;1.00;;;;;;;14.36;87.21;101604.44;5176054;57;1137014;-72
2022/10/19 13:44:23;;;;;;;2.90;0.67;;;;;;;14.55;82.92;101608.39;5101682;56;1135186;-72
2022/10/19 13:49:58;;;;;;;1.03;0.60;;;;;;;14.19;78.86;101610.70;5127288;56;1138941;-71
2022/10/19 13:55:27;;;;;;;6.20;3.30;;;;;;;13.88;81.36;101617.46;5131078;56;1139000;-72
2022/10/19 14:00:52;;;;;;;2.50;1.00;;;;;;;14.06;85.18;101616.91;5147831;56;1138970;-71
2022/10/19 14:06:36;;;;;;;1.13;0.80;;;;;;;14.45;84.86;101628.70;5132381;57;1138961;-70
2022/10/19 14:11:46;;;;;;;0.93;0.90;;;;;;;14.76;84.50;101616.06;5154978;56;1138888;-69
2022/10/19 14:16:59;;;;;;;13.23;2.33;;;;;;;14.74;82.71;101636.64;5254919;55;1138868;-71
2022/10/19 14:22:28;;;;;;;8.17;3.73;;;;;;;14.58;81.64;101629.46;5194478;56;1141053;-71
2022/10/19 14:27:36;;;;;;;6.80;2.73;;;;;;;14.33;79.19;101640.63;5230135;55;1139162;-71
2022/10/19 14:32:41;;;;;;;5.23;3.03;;;;;;;14.37;78.36;101648.72;5196864;56;1139081;-73
2022/10/19 14:37:47;;;;;;;6.70;2.80;;;;;;;14.91;77.84;101645.50;5143954;56;1137005;-72
2022/10/19 14:42:53;;;;;;;11.68;4.48;;;;;;;14.51;77.08;101653.06;5144161;56;1136871;-70
2022/10/19 14:48:05;;;;;;;11.60;3.43;;;;;;;14.25;78.99;101647.47;5144073;56;1139055;-71
2022/10/19 14:53:44;;;;;;;8.97;3.50;;;;;;;14.19;81.37;101646.14;5208465;56;1139009;-72
2022/10/19 14:59:06;;;;;;;5.43;3.07;;;;;;;14.88;82.48;101659.05;5291172;55;1136940;-72
2022/10/19 15:04:13;;;;;;;3.90;2.87;;;;;;;16.75;77.97;101654.91;5286735;55;1136946;-71
2022/10/19 15:09:26;;;;;;;5.40;3.60;;;;;;;16.92;71.51;101660.14;5198483;56;1137157;-72
2022/10/19 15:14:32;;;;;;;26.62;14.15;;;;;;;15.91;72.24;101663.73;5207634;57;21210;-72
2022/10/19 15:19:41;;;;;;;39.67;20.23;;;;;;;15.17;74.69;101666.10;5195916;56;1138977;-70
2022/10/19 15:25:09;;;;;;;38.50;18.92;;;;;;;14.65;75.67;101671.49;5142634;57;1143101;-70
2022/10/19 15:30:28;;;;;;;30.00;16.00;;;;;;;14.21;76.61;101675.27;5103756;58;1143176;-72
2022/10/19 15:35:37;;;;;;;25.87;9.80;;;;;;;13.64;76.35;101686.07;5080143;57;1143146;-72
2022/10/19 15:40:47;;;;;;;52.80;20.67;;;;;;;13.16;77.95;101685.08;5193965;57;1141072;-72
2022/10/19 15:46:07;;;;;;;20.60;10.53;;;;;;;12.93;79.80;101695.95;5157440;57;1143263;-72
2022/10/19 15:51:32;;;;;;;13.47;7.87;;;;;;;12.77;80.28;101700.61;5189180;56;1143130;-71
2022/10/19 15:56:40;;;;;;;12.17;5.53;;;;;;;12.66;81.20;101701.34;5192551;56;1140963;-70
2022/10/19 16:01:47;;;;;;;30.40;9.30;;;;;;;12.51;81.15;101710.33;5190589;55;1141004;-70
2022/10/19 16:06:52;;;;;;;18.77;8.47;;;;;;;12.37;81.31;101726.32;5193824;57;1141093;-71
2022/10/19 16:11:59;;;;;;;174.67;105.73;;;;;;;12.22;82.08;101724.16;5128211;56;1141085;-70
2022/10/19 16:17:05;;;;;;;546.70;299.37;;;;;;;12.08;82.15;101726.02;5159284;57;1147297;-70
2022/10/19 16:22:11;;;;;;;470.40;228.10;;;;;;;12.00;82.99;101723.02;5206181;57;1147514;-72
2022/10/19 16:27:17;;;;;;;236.57;106.67;;;;;;;12.00;84.12;101730.97;5163862;57;1147281;-73
2022/10/19 16:32:23;;;;;;;179.00;94.23;;;;;;;12.00;84.12;101730.97;5149800;57;1147238;-71
2022/10/19 16:37:28;;;;;;;140.60;71.80;;;;;;;11.98;84.36;101736.37;5149910;57;1145573;-72
2022/10/19 16:42:34;;;;;;;112.57;44.17;;;;;;;11.96;84.76;101741.77;5149749;57;1145366;-71
2022/10/19 16:47:40;;;;;;;102.87;40.07;;;;;;;11.84;84.33;101746.53;5200616;56;1145246;-71
2022/10/19 16:52:46;;;;;;;94.87;44.03;;;;;;;11.72;84.86;101752.58;5232856;55;1145388;-70
2022/10/19 16:57:52;;;;;;;117.67;63.67;;;;;;;11.62;85.19;101748.30;5232550;55;1143222;-72
2022/10/19 17:02:58;;;;;;;95.70;52.17;;;;;;;11.50;85.15;101746.90;5233553;55;1145440;-69
2022/10/19 17:08:05;;;;;;;69.67;39.50;;;;;;;11.32;85.06;101755.50;5229853;56;1143197;-72
2022/10/19 17:13:12;;;;;;;723.40;368.90;;;;;;;11.07;84.82;101768.52;5065051;57;1143439;-69
2022/10/19 17:18:17;;;;;;;552.53;213.93;;;;;;;10.92;85.34;101771.14;5230180;56;1145497;-71
2022/10/19 17:23:24;;;;;;;98.80;42.57;;;;;;;10.78;85.31;101778.19;5206079;57;1145256;-71
2022/10/19 17:28:29;;;;;;;167.63;78.50;;;;;;;10.70;85.67;101785.70;5151259;56;1141023;-72
2022/10/19 17:33:36;;;;;;;110.83;56.27;;;;;;;10.63;86.67;101793.63;5180812;56;1143175;-70
2022/10/19 17:38:42;;;;;;;43.70;23.23;;;;;;;10.72;87.44;101803.67;5245923;55;1143455;-70
2022/10/19 17:43:54;;;;;;;37.47;17.60;;;;;;;10.75;87.49;101804.35;5294299;56;1141514;-71
2022/10/19 17:48:58;;;;;;;35.30;17.70;;;;;;;10.69;87.23;101815.31;5277580;55;1141203;-69
2022/10/19 17:54:11;;;;;;;49.00;25.60;;;;;;;10.55;86.68;101816.53;5227065;56;1141083;-71
2022/10/19 17:59:16;;;;;;;148.13;66.17;;;;;;;10.41;87.28;101819.97;5265373;56;1141259;-69
2022/10/19 18:04:22;;;;;;;66.80;34.60;;;;;;;10.38;87.88;101823.28;5195036;56;1143412;-70
2022/10/19 18:09:28;;;;;;;55.13;28.67;;;;;;;10.31;87.80;101830.69;5233939;56;1141029;-70
2022/10/19 18:14:34;;;;;;;34.20;18.63;;;;;;;10.21;87.89;101833.00;5130247;57;1141105;-70
2022/10/19 18:19:40;;;;;;;27.73;15.93;;;;;;;10.17;88.51;101834.53;5174828;57;1141019;-71
2022/10/19 18:24:45;;;;;;;30.83;16.63;;;;;;;10.12;88.33;101839.20;5219573;56;1141322;-71
2022/10/19 18:29:51;;;;;;;33.87;18.20;;;;;;;9.90;87.67;101842.64;5157512;56;1141292;-71
2022/10/19 18:34:57;;;;;;;52.27;27.52;;;;;;;9.83;88.43;101842.09;5193407;57;1138979;-71
2022/10/19 18:40:03;;;;;;;56.87;29.77;;;;;;;9.89;88.90;101847.07;5193434;57;1139026;-70
2022/10/19 18:45:09;;;;;;;53.13;28.63;;;;;;;9.91;89.16;101846.99;5071828;58;1136957;-69
2022/10/19 18:50:16;;;;;;;47.53;25.90;;;;;;;9.89;89.27;101849.72;5063477;58;21161;-71
2022/10/19 18:55:22;;;;;;;104.53;50.80;;;;;;;9.83;89.10;101852.20;5045898;58;1136880;-69
2022/10/19 19:00:28;;;;;;;133.27;69.33;;;;;;;9.72;88.82;101848.43;5114826;58;1143063;-69
2022/10/19 19:05:34;;;;;;;117.62;63.65;;;;;;;9.55;89.04;101847.14;5089584;57;1143066;-70
2022/10/19 19:10:40;;;;;;;89.27;47.27;;;;;;;9.39;88.84;101843.97;5091706;58;1143028;-70
2022/10/19 19:15:58;;;;;;;85.47;41.50;;;;;;;9.14;88.41;101848.34;4975934;58;1139205;-71
2022/10/19 19:21:08;;;;;;;91.30;43.00;;;;;;;8.91;88.71;101853.03;5144474;56;1138975;-71
2022/10/19 19:26:15;;;;;;;182.10;83.37;;;;;;;8.81;89.87;101857.92;5053050;56;1141005;-70
2022/10/19 19:31:21;;;;;;;161.80;79.03;;;;;;;8.89;90.29;101865.45;5149128;56;1143311;-71
2022/10/19 19:36:27;;;;;;;114.80;57.27;;;;;;;8.91;90.44;101872.83;4996451;58;1143351;-69
2022/10/19 19:41:33;;;;;;;110.10;52.78;;;;;;;8.94;90.35;101874.00;5041982;58;1143232;-69
2022/10/19 19:46:39;;;;;;;114.83;55.80;;;;;;;8.90;89.92;101868.47;5053007;57;1143284;-71
2022/10/19 19:51:44;;;;;;;117.77;58.80;;;;;;;8.86;90.13;101865.62;5050287;58;1143089;-71
2022/10/19 19:56:53;;;;;;;140.13;67.50;;;;;;;8.61;88.89;101881.30;5038896;57;1140991;-71
2022/10/19 20:02:00;;;;;;;148.87;72.60;;;;;;;8.48;89.63;101884.13;4991852;58;1141173;-69
2022/10/19 20:07:06;;;;;;;154.30;70.60;;;;;;;8.20;89.43;101876.62;4984870;58;1141281;-72
2022/10/19 20:12:12;;;;;;;144.70;67.23;;;;;;;8.10;90.02;101881.44;4998573;59;1141081;-69
2022/10/19 20:17:22;;;;;;;111.13;53.93;;;;;;;7.92;89.46;101890.20;4959781;58;1143142;-71
2022/10/19 20:22:25;;;;;;;145.93;70.33;;;;;;;7.63;89.59;101894.11;5037687;57;1143010;-69
2022/10/19 20:27:35;;;;;;;149.30;70.80;;;;;;;7.65;91.08;101886.97;5086700;58;1143172;-71
2022/10/19 20:32:41;;;;;;;124.80;59.07;;;;;;;7.73;91.42;101891.46;5027870;58;1143169;-72
2022/10/19 20:37:49;;;;;;;114.77;55.77;;;;;;;7.78;91.89;101904.90;5077503;57;1141056;-72
2022/10/19 20:42:55;;;;;;;112.73;54.90;;;;;;;7.82;91.96;101903.36;4999190;58;1141349;-71
2022/10/19 20:48:01;;;;;;;129.77;62.53;;;;;;;7.73;91.07;101911.22;4961192;59;1141092;-70
2022/10/19 20:53:08;;;;;;;123.63;54.00;;;;;;;7.61;90.97;101913.06;5011588;57;1141287;-70
2022/10/19 20:58:14;;;;;;;84.13;37.30;;;;;;;7.15;89.59;101922.03;5034090;58;1140985;-71
2022/10/19 21:03:22;;;;;;;95.47;45.33;;;;;;;6.78;90.51;101922.64;5027877;59;1141007;-72
2022/10/19 21:08:28;;;;;;;90.40;43.33;;;;;;;6.90;92.05;101922.16;5094282;57;1141016;-70
2022/10/19 21:13:34;;;;;;;87.43;41.73;;;;;;;6.98;92.20;101921.86;5094324;57;1141126;-72
2022/10/19 21:18:40;;;;;;;43.40;19.67;;;;;;;6.78;91.22;101927.05;5094935;57;1139187;-71
2022/10/19 21:23:51;;;;;;;46.33;22.70;;;;;;;6.53;91.54;101934.58;5095128;57;1138990;-69
2022/10/19 21:28:56;;;;;;;79.43;28.10;;;;;;;6.26;91.73;101925.94;5041872;58;1139089;-70
2022/10/19 21:34:07;;;;;;;69.43;28.43;;;;;;;6.30;93.53;101922.30;5002990;58;1139214;-69
2022/10/19 21:39:13;;;;;;;91.33;39.90;;;;;;;6.33;93.10;101920.02;5029592;59;1137103;-69
2022/10/19 21:44:21;;;;;;;145.20;69.23;;;;;;;6.45;93.89;101925.26;4987762;58;1138997;-70
2022/10/19 21:49:27;;;;;;;175.80;84.30;;;;;;;6.56;93.46;101921.78;5067574;58;1141328;-71
2022/10/19 21:54:33;;;;;;;189.63;88.33;;;;;;;6.68;93.77;101926.56;5186905;56;1141086;-70
2022/10/19 21:59:39;;;;;;;185.53;81.43;;;;;;;6.75;93.75;101914.02;5177286;56;1138907;-70
2022/10/19 22:04:45;;;;;;;164.37;73.43;;;;;;;6.79;93.53;101920.41;5201010;56;1139502;-70
2022/10/19 22:09:51;;;;;;;107.57;44.80;;;;;;;6.75;92.62;101927.16;5217688;56;1139071;-71
2022/10/19 22:14:57;;;;;;;55.13;23.40;;;;;;;6.25;90.65;101937.39;5227617;56;1138975;-70
2022/10/19 22:20:03;;;;;;;48.40;21.97;;;;;;;5.86;90.85;101935.70;5227695;56;1136827;-70
2022/10/19 22:25:09;;;;;;;46.03;22.33;;;;;;;5.82;92.34;101930.61;5086050;56;1139334;-70
2022/10/19 22:30:15;;;;;;;59.20;24.87;;;;;;;5.77;92.09;101941.75;5059158;58;1139203;-70
2022/10/19 22:35:20;;;;;;;108.63;46.23;;;;;;;5.83;93.47;101929.24;5059141;58;1136809;-70
2022/10/19 22:40:27;;;;;;;111.60;52.03;;;;;;;5.71;92.71;101934.93;5094778;57;1139002;-69
2022/10/19 22:45:33;;;;;;;141.37;61.87;;;;;;;5.70;93.49;101930.59;5142256;57;1139076;-71
2022/10/19 22:50:38;;;;;;;127.00;61.07;;;;;;;5.77;93.88;101942.61;5062332;56;1138985;-71
2022/10/19 22:55:45;;;;;;;113.20;49.60;;;;;;;5.74;93.31;101931.34;5136641;57;1139041;-72
2022/10/19 23:01:07;;;;;;;95.87;42.87;;;;;;;5.76;93.39;101936.09;5122439;57;1139118;-72
2022/10/19 23:06:15;;;;;;;98.90;46.03;;;;;;;5.75;93.12;101945.73;5141415;57;1141186;-71
2022/10/19 23:11:21;;;;;;;92.37;43.77;;;;;;;5.78;93.39;101945.64;5188060;56;1139166;-69